RYR93SK EIKN-EGBB
Flight info
| Callsign | RYR93SK |
|---|---|
| Flight time | 0h 50m |
| Altitude | 29000 |
| Route | CON DCT OLAPO DCT BOFUM Q37 MALUD |
| Aircraft | B38M/M-SDE1FGHILORVWXY/HB1 |
Departure
| Time | 2026-04-29 18:14 |
|---|---|
| Airport | Ireland West Airport Knock (EIKN) |
Arrival
| Time | 2026-04-29 19:04 |
|---|---|
| Airport | Birmingham Airport (EGBB) |
| Time | Latitude | Longitude | Altitude | Speed | Heading |
|---|---|---|---|---|---|
| 2026-04-29 17:42 | 53.91401 | -8.81007 | 645 ft | 0 kts | 259° |
| 2026-04-29 18:00 | 53.91401 | -8.81006 | 645 ft | 0 kts | 259° |
| 2026-04-29 18:03 | 53.91403 | -8.80984 | 645 ft | 3 kts | 266° |
| 2026-04-29 18:04 | 53.91403 | -8.80950 | 647 ft | 3 kts | 273° |
| 2026-04-29 18:04 | 53.91405 | -8.80920 | 647 ft | 2 kts | 245° |
| 2026-04-29 18:04 | 53.91405 | -8.80918 | 647 ft | 1 kts | 245° |
| 2026-04-29 18:08 | 53.91403 | -8.80924 | 645 ft | 1 kts | 234° |
| 2026-04-29 18:08 | 53.91396 | -8.80930 | 646 ft | 2 kts | 200° |
| 2026-04-29 18:08 | 53.91378 | -8.80932 | 645 ft | 4 kts | 179° |
| 2026-04-29 18:08 | 53.91345 | -8.80923 | 645 ft | 6 kts | 168° |
| 2026-04-29 18:09 | 53.91297 | -8.80906 | 645 ft | 8 kts | 168° |
| 2026-04-29 18:09 | 53.91236 | -8.80885 | 645 ft | 10 kts | 168° |
| 2026-04-29 18:09 | 53.91170 | -8.80864 | 647 ft | 9 kts | 184° |
| 2026-04-29 18:09 | 53.91135 | -8.80950 | 646 ft | 10 kts | 258° |
| 2026-04-29 18:10 | 53.91119 | -8.81085 | 646 ft | 13 kts | 259° |
| 2026-04-29 18:10 | 53.91098 | -8.81263 | 645 ft | 18 kts | 258° |
| 2026-04-29 18:10 | 53.91070 | -8.81497 | 645 ft | 22 kts | 258° |
| 2026-04-29 18:10 | 53.91038 | -8.81767 | 643 ft | 25 kts | 259° |
| 2026-04-29 18:11 | 53.91003 | -8.82074 | 645 ft | 28 kts | 259° |
| 2026-04-29 18:11 | 53.90963 | -8.82407 | 647 ft | 30 kts | 258° |
| 2026-04-29 18:11 | 53.90919 | -8.82779 | 646 ft | 34 kts | 259° |
| 2026-04-29 18:11 | 53.90871 | -8.83183 | 645 ft | 31 kts | 259° |
| 2026-04-29 18:12 | 53.90825 | -8.83504 | 646 ft | 20 kts | 236° |
| 2026-04-29 18:12 | 53.90786 | -8.83663 | 647 ft | 8 kts | 304° |
| 2026-04-29 18:12 | 53.90807 | -8.83681 | 645 ft | 1 kts | 3° |
| 2026-04-29 18:12 | 53.90811 | -8.83673 | 645 ft | 1 kts | 57° |
| 2026-04-29 18:13 | 53.90817 | -8.83642 | 646 ft | 5 kts | 77° |
| 2026-04-29 18:13 | 53.90871 | -8.83182 | 645 ft | 80 kts | 79° |
| 2026-04-29 18:13 | 53.91030 | -8.81839 | 646 ft | 150 kts | 81° |
| 2026-04-29 18:13 | 53.91235 | -8.79955 | 1200 ft | 172 kts | 82° |
| 2026-04-29 18:14 | 53.91495 | -8.77941 | 2252 ft | 176 kts | 79° |
| 2026-04-29 18:14 | 53.91840 | -8.75920 | 3139 ft | 183 kts | 79° |
| 2026-04-29 18:14 | 53.92019 | -8.73710 | 3737 ft | 199 kts | 97° |
| 2026-04-29 18:14 | 53.91784 | -8.71256 | 4255 ft | 222 kts | 102° |
| 2026-04-29 18:15 | 53.91497 | -8.68551 | 4862 ft | 244 kts | 101° |
| 2026-04-29 18:15 | 53.91209 | -8.65633 | 5657 ft | 253 kts | 101° |
| 2026-04-29 18:15 | 53.90928 | -8.62703 | 6829 ft | 250 kts | 101° |
| 2026-04-29 18:15 | 53.90651 | -8.59766 | 7756 ft | 256 kts | 101° |
| 2026-04-29 18:16 | 53.90371 | -8.56749 | 8675 ft | 260 kts | 101° |
| 2026-04-29 18:16 | 53.90089 | -8.53694 | 9598 ft | 265 kts | 101° |
| 2026-04-29 18:16 | 53.89802 | -8.50578 | 10463 ft | 270 kts | 101° |
| 2026-04-29 18:16 | 53.89506 | -8.47367 | 11085 ft | 283 kts | 101° |
| 2026-04-29 18:17 | 53.89194 | -8.43960 | 11543 ft | 302 kts | 101° |
| 2026-04-29 18:17 | 53.88867 | -8.40401 | 12053 ft | 315 kts | 101° |
| 2026-04-29 18:17 | 53.88523 | -8.36679 | 12783 ft | 321 kts | 101° |
| 2026-04-29 18:17 | 53.88174 | -8.32941 | 13692 ft | 323 kts | 101° |
| 2026-04-29 18:18 | 53.87819 | -8.29147 | 14436 ft | 327 kts | 101° |
| 2026-04-29 18:18 | 53.87460 | -8.25326 | 15239 ft | 329 kts | 101° |
| 2026-04-29 18:18 | 53.87098 | -8.21488 | 16054 ft | 330 kts | 101° |
| 2026-04-29 18:18 | 53.86733 | -8.17632 | 16805 ft | 333 kts | 101° |
| 2026-04-29 18:19 | 53.86364 | -8.13745 | 17577 ft | 335 kts | 102° |
| 2026-04-29 18:19 | 53.85992 | -8.09848 | 18320 ft | 337 kts | 102° |
| 2026-04-29 18:19 | 53.85616 | -8.05913 | 18982 ft | 339 kts | 102° |
| 2026-04-29 18:19 | 53.85235 | -8.01946 | 19605 ft | 341 kts | 102° |
| 2026-04-29 18:20 | 53.84857 | -7.98017 | 20206 ft | 344 kts | 102° |
| 2026-04-29 18:20 | 53.84468 | -7.94000 | 20813 ft | 346 kts | 102° |
| 2026-04-29 18:20 | 53.84076 | -7.89963 | 21418 ft | 348 kts | 101° |
| 2026-04-29 18:20 | 53.83679 | -7.85896 | 22008 ft | 351 kts | 101° |
| 2026-04-29 18:21 | 53.83280 | -7.81810 | 22603 ft | 353 kts | 101° |
| 2026-04-29 18:21 | 53.82876 | -7.77694 | 23174 ft | 356 kts | 102° |
| 2026-04-29 18:21 | 53.82467 | -7.73548 | 23723 ft | 358 kts | 101° |
| 2026-04-29 18:21 | 53.82053 | -7.69365 | 24190 ft | 361 kts | 101° |
| 2026-04-29 18:22 | 53.81636 | -7.65164 | 24648 ft | 363 kts | 102° |
| 2026-04-29 18:22 | 53.81214 | -7.60929 | 25088 ft | 366 kts | 102° |
| 2026-04-29 18:22 | 53.80788 | -7.56671 | 25547 ft | 368 kts | 102° |
| 2026-04-29 18:22 | 53.80358 | -7.52388 | 25978 ft | 370 kts | 102° |
| 2026-04-29 18:23 | 53.79923 | -7.48080 | 26396 ft | 373 kts | 102° |
| 2026-04-29 18:23 | 53.79485 | -7.43742 | 26811 ft | 375 kts | 102° |
| 2026-04-29 18:23 | 53.79041 | -7.39375 | 27231 ft | 378 kts | 102° |
| 2026-04-29 18:23 | 53.78599 | -7.35038 | 27617 ft | 380 kts | 102° |
| 2026-04-29 18:24 | 53.78143 | -7.30613 | 27997 ft | 383 kts | 103° |
| 2026-04-29 18:24 | 53.77579 | -7.26218 | 28486 ft | 382 kts | 104° |
| 2026-04-29 18:24 | 53.77010 | -7.21827 | 29037 ft | 381 kts | 104° |
| 2026-04-29 18:24 | 53.76447 | -7.17447 | 29278 ft | 381 kts | 104° |
| 2026-04-29 18:25 | 53.75886 | -7.13079 | 29265 ft | 380 kts | 104° |
| 2026-04-29 18:25 | 53.74759 | -7.04338 | 29270 ft | 381 kts | 104° |
| 2026-04-29 18:26 | 53.73632 | -6.95640 | 29274 ft | 382 kts | 104° |
| 2026-04-29 18:26 | 53.72488 | -6.86870 | 29272 ft | 383 kts | 105° |
| 2026-04-29 18:27 | 53.71334 | -6.78073 | 29275 ft | 384 kts | 105° |
| 2026-04-29 18:27 | 53.70171 | -6.69262 | 29272 ft | 385 kts | 105° |
| 2026-04-29 18:28 | 53.68997 | -6.60424 | 29275 ft | 386 kts | 105° |
| 2026-04-29 18:28 | 53.67814 | -6.51574 | 29276 ft | 387 kts | 105° |
| 2026-04-29 18:29 | 53.66620 | -6.42691 | 29272 ft | 388 kts | 106° |
| 2026-04-29 18:29 | 53.65424 | -6.33857 | 29268 ft | 389 kts | 106° |
| 2026-04-29 18:30 | 53.64213 | -6.24950 | 29275 ft | 390 kts | 106° |
| 2026-04-29 18:30 | 53.62989 | -6.16010 | 29271 ft | 391 kts | 107° |
| 2026-04-29 18:31 | 53.61755 | -6.07053 | 29272 ft | 393 kts | 107° |
| 2026-04-29 18:31 | 53.60513 | -5.98090 | 29273 ft | 394 kts | 107° |
| 2026-04-29 18:32 | 53.59267 | -5.89149 | 29272 ft | 395 kts | 107° |
| 2026-04-29 18:32 | 53.57371 | -5.75647 | 29275 ft | 396 kts | 107° |
| 2026-04-29 18:33 | 53.56094 | -5.66615 | 29270 ft | 397 kts | 107° |
| 2026-04-29 18:33 | 53.54809 | -5.57571 | 29269 ft | 398 kts | 108° |
| 2026-04-29 18:34 | 53.53947 | -5.51511 | 29268 ft | 398 kts | 107° |
| 2026-04-29 18:34 | 53.53463 | -5.38993 | 29273 ft | 405 kts | 97° |
| 2026-04-29 18:35 | 53.53223 | -5.29512 | 29271 ft | 406 kts | 97° |
| 2026-04-29 18:35 | 53.52980 | -5.20015 | 29271 ft | 407 kts | 97° |
| 2026-04-29 18:36 | 53.52700 | -5.10508 | 29269 ft | 407 kts | 98° |
| 2026-04-29 18:36 | 53.52403 | -5.00987 | 29270 ft | 408 kts | 98° |
| 2026-04-29 18:37 | 53.52102 | -4.91515 | 29266 ft | 409 kts | 98° |
| 2026-04-29 18:37 | 53.51790 | -4.81959 | 29259 ft | 410 kts | 98° |
| 2026-04-29 18:38 | 53.51470 | -4.72377 | 29253 ft | 411 kts | 98° |
| 2026-04-29 18:38 | 53.51198 | -4.64405 | 29252 ft | 411 kts | 98° |
| 2026-04-29 18:39 | 53.50863 | -4.54806 | 29257 ft | 412 kts | 98° |
| 2026-04-29 18:39 | 53.50522 | -4.45222 | 29249 ft | 412 kts | 98° |
| 2026-04-29 18:40 | 53.50171 | -4.35605 | 29254 ft | 412 kts | 98° |
| 2026-04-29 18:40 | 53.49813 | -4.26001 | 29257 ft | 412 kts | 98° |
| 2026-04-29 18:41 | 53.49073 | -4.06787 | 29285 ft | 412 kts | 98° |
| 2026-04-29 18:42 | 53.48660 | -3.97179 | 29274 ft | 410 kts | 103° |
| 2026-04-29 18:42 | 53.47891 | -3.92634 | 29293 ft | 404 kts | 114° |
| 2026-04-29 18:42 | 53.47005 | -3.88276 | 29324 ft | 392 kts | 112° |
| 2026-04-29 18:43 | 53.46148 | -3.84031 | 29267 ft | 377 kts | 112° |
| 2026-04-29 18:43 | 53.45305 | -3.79920 | 28989 ft | 369 kts | 112° |
| 2026-04-29 18:43 | 53.44466 | -3.75861 | 28581 ft | 372 kts | 112° |
| 2026-04-29 18:43 | 53.43598 | -3.71678 | 28088 ft | 385 kts | 112° |
| 2026-04-29 18:44 | 53.42713 | -3.67426 | 27671 ft | 389 kts | 112° |
| 2026-04-29 18:44 | 53.41809 | -3.63130 | 27282 ft | 389 kts | 114° |
| 2026-04-29 18:44 | 53.40470 | -3.59265 | 26890 ft | 381 kts | 132° |
| 2026-04-29 18:44 | 53.38710 | -3.55944 | 26607 ft | 381 kts | 132° |
| 2026-04-29 18:45 | 53.36982 | -3.52570 | 26285 ft | 380 kts | 132° |
| 2026-04-29 18:45 | 53.35251 | -3.49233 | 25964 ft | 378 kts | 132° |
| 2026-04-29 18:45 | 53.33545 | -3.45970 | 25651 ft | 376 kts | 132° |
| 2026-04-29 18:45 | 53.31822 | -3.42688 | 25336 ft | 375 kts | 132° |
| 2026-04-29 18:46 | 53.30105 | -3.39425 | 25014 ft | 373 kts | 132° |
| 2026-04-29 18:46 | 53.28391 | -3.36172 | 24706 ft | 371 kts | 132° |
| 2026-04-29 18:46 | 53.26689 | -3.32947 | 24389 ft | 370 kts | 132° |
| 2026-04-29 18:46 | 53.24986 | -3.29725 | 24080 ft | 369 kts | 132° |
| 2026-04-29 18:47 | 53.23292 | -3.26523 | 23742 ft | 367 kts | 132° |
| 2026-04-29 18:47 | 53.21602 | -3.23335 | 23386 ft | 365 kts | 132° |
| 2026-04-29 18:47 | 53.19920 | -3.20161 | 23070 ft | 363 kts | 131° |
| 2026-04-29 18:47 | 53.18463 | -3.16726 | 22718 ft | 362 kts | 123° |
| 2026-04-29 18:48 | 53.17136 | -3.13183 | 22442 ft | 361 kts | 123° |
| 2026-04-29 18:48 | 53.15798 | -3.09646 | 22149 ft | 359 kts | 123° |
| 2026-04-29 18:48 | 53.14468 | -3.06139 | 21835 ft | 357 kts | 123° |
| 2026-04-29 18:48 | 53.13160 | -3.02693 | 21539 ft | 355 kts | 123° |
| 2026-04-29 18:49 | 53.11841 | -2.99226 | 21239 ft | 353 kts | 123° |
| 2026-04-29 18:49 | 53.10530 | -2.95783 | 20883 ft | 351 kts | 123° |
| 2026-04-29 18:49 | 53.09220 | -2.92351 | 20430 ft | 349 kts | 123° |
| 2026-04-29 18:49 | 53.07914 | -2.88940 | 19976 ft | 347 kts | 124° |
| 2026-04-29 18:50 | 53.06485 | -2.85717 | 19532 ft | 345 kts | 127° |
| 2026-04-29 18:50 | 53.05058 | -2.82539 | 19106 ft | 343 kts | 127° |
| 2026-04-29 18:50 | 53.03642 | -2.79365 | 18686 ft | 339 kts | 126° |
| 2026-04-29 18:50 | 53.02249 | -2.76234 | 18191 ft | 336 kts | 126° |
| 2026-04-29 18:51 | 53.00862 | -2.73119 | 17699 ft | 333 kts | 126° |
| 2026-04-29 18:51 | 52.99497 | -2.70051 | 17273 ft | 329 kts | 126° |
| 2026-04-29 18:51 | 52.98137 | -2.67000 | 16855 ft | 327 kts | 126° |
| 2026-04-29 18:51 | 52.96784 | -2.63966 | 16434 ft | 326 kts | 126° |
| 2026-04-29 18:52 | 52.95455 | -2.60991 | 16016 ft | 325 kts | 126° |
| 2026-04-29 18:52 | 52.94096 | -2.57951 | 15613 ft | 323 kts | 126° |
| 2026-04-29 18:52 | 52.92777 | -2.55007 | 15217 ft | 322 kts | 126° |
| 2026-04-29 18:52 | 52.91683 | -2.51744 | 14790 ft | 321 kts | 114° |
| 2026-04-29 18:53 | 52.90643 | -2.48552 | 14355 ft | 317 kts | 121° |
| 2026-04-29 18:53 | 52.89528 | -2.45478 | 13867 ft | 306 kts | 123° |
| 2026-04-29 18:53 | 52.88339 | -2.42623 | 13353 ft | 296 kts | 125° |
| 2026-04-29 18:53 | 52.87173 | -2.39883 | 12848 ft | 287 kts | 125° |
| 2026-04-29 18:54 | 52.86038 | -2.37227 | 12345 ft | 279 kts | 125° |
| 2026-04-29 18:54 | 52.84900 | -2.34611 | 11835 ft | 281 kts | 128° |
| 2026-04-29 18:54 | 52.83579 | -2.32228 | 11358 ft | 278 kts | 132° |
| 2026-04-29 18:54 | 52.82279 | -2.29912 | 10875 ft | 271 kts | 131° |
| 2026-04-29 18:55 | 52.81018 | -2.27638 | 10394 ft | 266 kts | 131° |
| 2026-04-29 18:55 | 52.79766 | -2.25364 | 9923 ft | 268 kts | 131° |
| 2026-04-29 18:55 | 52.78520 | -2.23089 | 9536 ft | 266 kts | 130° |
| 2026-04-29 18:55 | 52.77284 | -2.20830 | 9154 ft | 264 kts | 130° |
| 2026-04-29 18:56 | 52.76061 | -2.18590 | 8773 ft | 261 kts | 130° |
| 2026-04-29 18:56 | 52.74847 | -2.16367 | 8408 ft | 259 kts | 130° |
| 2026-04-29 18:56 | 52.73646 | -2.14170 | 8045 ft | 257 kts | 130° |
| 2026-04-29 18:56 | 52.72453 | -2.11988 | 7685 ft | 255 kts | 130° |
| 2026-04-29 18:57 | 52.71271 | -2.09829 | 7360 ft | 251 kts | 130° |
| 2026-04-29 18:57 | 52.70144 | -2.07772 | 7334 ft | 238 kts | 130° |
| 2026-04-29 18:57 | 52.69026 | -2.05731 | 6976 ft | 241 kts | 130° |
| 2026-04-29 18:57 | 52.67905 | -2.03687 | 6441 ft | 240 kts | 129° |
| 2026-04-29 18:58 | 52.66796 | -2.01669 | 5944 ft | 235 kts | 129° |
| 2026-04-29 18:58 | 52.65701 | -1.99676 | 5493 ft | 235 kts | 129° |
| 2026-04-29 18:58 | 52.64601 | -1.97675 | 5083 ft | 236 kts | 129° |
| 2026-04-29 18:58 | 52.63515 | -1.95690 | 4692 ft | 229 kts | 130° |
| 2026-04-29 18:59 | 52.62359 | -1.93951 | 4357 ft | 219 kts | 136° |
| 2026-04-29 18:59 | 52.61178 | -1.92476 | 4028 ft | 208 kts | 139° |
| 2026-04-29 18:59 | 52.60022 | -1.91144 | 3724 ft | 197 kts | 139° |
| 2026-04-29 18:59 | 52.58922 | -1.89902 | 3447 ft | 187 kts | 139° |
| 2026-04-29 19:00 | 52.57880 | -1.88735 | 3191 ft | 173 kts | 138° |
| 2026-04-29 19:00 | 52.56927 | -1.87671 | 2962 ft | 160 kts | 137° |
| 2026-04-29 19:00 | 52.56032 | -1.86670 | 2747 ft | 148 kts | 136° |
| 2026-04-29 19:00 | 52.55218 | -1.85763 | 2565 ft | 140 kts | 135° |
| 2026-04-29 19:01 | 52.54406 | -1.84851 | 2355 ft | 142 kts | 135° |
| 2026-04-29 19:01 | 52.53583 | -1.83929 | 2159 ft | 144 kts | 135° |
| 2026-04-29 19:01 | 52.52746 | -1.82998 | 1957 ft | 147 kts | 136° |
| 2026-04-29 19:01 | 52.51909 | -1.82064 | 1746 ft | 139 kts | 137° |
| 2026-04-29 19:02 | 52.51154 | -1.81223 | 1569 ft | 130 kts | 136° |
| 2026-04-29 19:02 | 52.50646 | -1.80659 | 1461 ft | 131 kts | 136° |
| 2026-04-29 19:02 | 52.49647 | -1.79540 | 1198 ft | 133 kts | 138° |
| 2026-04-29 19:02 | 52.48868 | -1.78664 | 1030 ft | 137 kts | 137° |
| 2026-04-29 19:03 | 52.48074 | -1.77790 | 799 ft | 138 kts | 138° |
| 2026-04-29 19:03 | 52.47284 | -1.76924 | 577 ft | 136 kts | 136° |
| 2026-04-29 19:03 | 52.46494 | -1.76044 | 385 ft | 139 kts | 139° |
| 2026-04-29 19:03 | 52.45735 | -1.75201 | 325 ft | 112 kts | 145° |
| 2026-04-29 19:04 | 52.45217 | -1.74618 | 330 ft | 69 kts | 144° |
| 2026-04-29 19:04 | 52.44953 | -1.74311 | 328 ft | 24 kts | 126° |
| 2026-04-29 19:04 | 52.44961 | -1.74146 | 331 ft | 15 kts | 75° |
| 2026-04-29 19:04 | 52.44988 | -1.73977 | 325 ft | 16 kts | 76° |
| 2026-04-29 19:05 | 52.45026 | -1.73853 | 324 ft | 11 kts | 55° |
| 2026-04-29 19:05 | 52.45062 | -1.73768 | 325 ft | 9 kts | 53° |
| 2026-04-29 19:05 | 52.45104 | -1.73709 | 326 ft | 8 kts | 45° |
| 2026-04-29 19:05 | 52.45140 | -1.73647 | 324 ft | 8 kts | 23° |
| 2026-04-29 19:06 | 52.45184 | -1.73669 | 324 ft | 5 kts | 314° |
| 2026-04-29 19:06 | 52.45205 | -1.73696 | 326 ft | 0 kts | 326° |